Time;durP1;ratioP1;P1;durP2;ratioP2;P2;SDS_P1;SDS_P2;PMS_P1;PMS_P2;Temp;Humidity;BMP_temperature;BMP_pressure;BME280_temperature;BME280_humidity;BME280_pressure;Samples;Min_cycle;Max_cycle;Signal;HPM_P1;HPM_P2
2022/05/07 00:01:59;;;;;;;7.05;3.22;;;;;;;11.24;58.52;101173.53;5092064;28;20040;-82
2022/05/07 00:04:24;;;;;;;8.95;3.25;;;;;;;11.23;59.62;101171.88;5093359;28;20572;-82
2022/05/07 00:06:50;;;;;;;7.15;4.38;;;;;;;11.17;60.12;101168.31;5092812;28;20047;-81
2022/05/07 00:09:16;;;;;;;5.20;3.72;;;;;;;11.14;60.03;101168.84;5093807;28;20433;-81
2022/05/07 00:11:41;;;;;;;5.72;3.28;;;;;;;11.09;60.62;101174.31;5094987;28;20032;-82
2022/05/07 00:14:07;;;;;;;5.82;3.45;;;;;;;11.03;60.74;101167.19;5113955;28;20031;-82
2022/05/07 00:19:17;;;;;;;5.18;2.88;;;;;;;10.97;61.21;101157.28;5107740;28;20138;-82
2022/05/07 00:21:43;;;;;;;7.47;3.60;;;;;;;10.93;61.43;101160.81;5110947;28;20035;-82
2022/05/07 00:24:08;;;;;;;4.78;3.30;;;;;;;10.91;60.97;101158.34;5100233;28;20135;-82
2022/05/07 00:26:34;;;;;;;5.10;3.45;;;;;;;10.90;61.67;101158.63;5093693;28;20134;-82
2022/05/07 00:29:00;;;;;;;6.90;3.55;;;;;;;10.87;61.21;101152.59;5093221;28;20031;-82
2022/05/07 00:31:26;;;;;;;4.25;2.95;;;;;;;10.83;62.71;101158.88;5101317;28;20042;-82
2022/05/07 00:33:51;;;;;;;4.85;2.97;;;;;;;10.76;62.79;101155.56;5106927;28;20486;-82
2022/05/07 00:36:19;;;;;;;4.00;2.88;;;;;;;10.74;62.79;101149.50;5093017;28;20093;-82
2022/05/07 00:38:45;;;;;;;5.22;3.25;;;;;;;10.70;62.76;101149.25;5091249;28;20040;-81
2022/05/07 00:41:11;;;;;;;5.40;3.15;;;;;;;10.67;63.27;101144.28;5094334;28;20040;-81
2022/05/07 00:43:39;;;;;;;3.35;2.92;;;;;;;10.65;63.49;101143.75;5113463;28;20130;-81
2022/05/07 00:46:05;;;;;;;6.35;3.78;;;;;;;10.63;63.49;101145.09;5111767;28;20088;-82
2022/05/07 00:48:31;;;;;;;4.80;3.60;;;;;;;10.61;63.79;101144.56;5091261;28;20032;-82
2022/05/07 00:53:41;;;;;;;6.20;3.70;;;;;;;10.54;63.94;101139.28;5094616;28;20046;-82
2022/05/07 00:56:07;;;;;;;6.32;4.13;;;;;;;10.53;64.43;101143.13;5076597;28;20036;-80
2022/05/07 00:58:38;;;;;;;6.75;4.55;;;;;;;10.51;64.06;101137.91;5074406;28;20040;-80
2022/05/07 01:01:04;;;;;;;6.32;4.10;;;;;;;10.50;64.25;101138.19;5074539;28;20043;-81
2022/05/07 01:03:30;;;;;;;11.88;3.78;;;;;;;10.48;64.80;101132.97;5082364;28;20044;-82
2022/05/07 01:05:56;;;;;;;7.57;4.00;;;;;;;10.47;64.41;101127.75;5091404;28;20063;-81
2022/05/07 01:08:22;;;;;;;5.20;3.53;;;;;;;10.49;64.72;101129.13;5074313;28;20074;-81
2022/05/07 01:10:48;;;;;;;6.55;3.53;;;;;;;10.49;64.95;101128.31;5074637;28;20040;-81
2022/05/07 01:13:15;;;;;;;7.65;3.90;;;;;;;10.49;65.20;101117.34;5091023;28;20047;-81
2022/05/07 01:15:46;;;;;;;6.07;4.00;;;;;;;10.49;65.31;101129.13;5091969;28;20038;-81
2022/05/07 01:18:15;;;;;;;5.88;3.35;;;;;;;10.49;65.82;101122.81;5088644;28;20426;-80
2022/05/07 01:20:42;;;;;;;3.78;3.22;;;;;;;10.47;65.95;101125.84;5091873;28;20525;-80
2022/05/07 01:23:08;;;;;;;5.93;3.70;;;;;;;10.47;65.73;101127.75;5091105;28;20035;-80
2022/05/07 01:25:34;;;;;;;5.10;3.22;;;;;;;10.49;66.09;101120.06;5094386;28;20513;-79
2022/05/07 01:28:00;;;;;;;6.07;3.42;;;;;;;10.52;65.74;101128.59;5112228;28;20069;-80
2022/05/07 01:30:27;;;;;;;5.13;3.75;;;;;;;10.55;65.95;101128.03;5098503;28;20031;-80
2022/05/07 01:32:54;;;;;;;4.78;3.35;;;;;;;10.57;65.83;101127.78;5109118;28;20043;-80
2022/05/07 01:35:21;;;;;;;5.70;3.88;;;;;;;10.54;66.07;101122.84;5094612;28;20476;-80
2022/05/07 01:37:49;;;;;;;5.57;3.60;;;;;;;10.53;66.39;101112.94;5094710;28;20039;-80
2022/05/07 01:40:14;;;;;;;6.20;3.80;;;;;;;10.54;66.43;101117.34;5110444;28;20043;-79
2022/05/07 01:42:43;;;;;;;7.22;3.63;;;;;;;10.55;66.62;101116.25;5111138;28;20040;-80
2022/05/07 01:45:10;;;;;;;5.22;3.78;;;;;;;10.52;66.44;101109.38;5097995;28;20032;-80
2022/05/07 01:50:23;;;;;;;7.75;4.18;;;;;;;10.57;66.25;101103.06;5090549;28;20095;-80
2022/05/07 01:52:48;;;;;;;5.88;3.80;;;;;;;10.56;66.82;101107.75;5090916;28;20040;-80
2022/05/07 01:55:14;;;;;;;5.68;3.10;;;;;;;10.54;66.89;101112.69;5074962;28;20093;-81
2022/05/07 01:57:42;;;;;;;5.50;3.25;;;;;;;10.54;66.50;101107.19;5073846;28;20141;-80
2022/05/07 02:00:08;;;;;;;3.85;3.10;;;;;;;10.54;66.74;101111.84;5073565;28;20047;-81
2022/05/07 02:02:37;;;;;;;6.30;3.45;;;;;;;10.53;66.91;101113.78;5101777;28;20039;-81
2022/05/07 02:05:04;;;;;;;6.97;3.25;;;;;;;10.54;66.95;101109.94;5110683;28;20066;-80
2022/05/07 02:07:30;;;;;;;7.55;3.67;;;;;;;10.53;67.51;101104.72;5103632;28;20442;-80
2022/05/07 02:09:56;;;;;;;4.05;3.25;;;;;;;10.53;67.64;101107.47;5090547;28;20036;-80
2022/05/07 02:12:22;;;;;;;4.95;3.13;;;;;;;10.53;67.53;101101.97;5111860;28;20042;-81
2022/05/07 02:14:49;;;;;;;4.03;2.92;;;;;;;10.53;67.60;101094.56;5110469;28;20046;-81
2022/05/07 02:17:17;;;;;;;4.20;2.90;;;;;;;10.54;67.91;101098.97;5073827;28;20050;-81
2022/05/07 02:19:43;;;;;;;5.40;3.10;;;;;;;10.56;67.64;101098.69;5091562;28;20481;-81
2022/05/07 02:22:08;;;;;;;4.18;2.88;;;;;;;10.57;67.33;101106.66;5090025;28;20047;-81
2022/05/07 02:24:34;;;;;;;4.95;2.92;;;;;;;10.58;67.73;101097.31;5092218;28;20047;-81
2022/05/07 02:27:03;;;;;;;4.80;3.17;;;;;;;10.58;68.00;101093.75;5089773;28;20607;-81
2022/05/07 02:29:28;;;;;;;5.15;2.85;;;;;;;10.54;67.18;101087.97;5073036;28;20055;-81
2022/05/07 02:32:03;;;;;;;4.32;3.13;;;;;;;10.58;67.42;101091.81;5090052;28;20040;-81
2022/05/07 02:34:33;;;;;;;4.22;3.28;;;;;;;10.62;67.83;101094.06;5091877;28;20082;-81
2022/05/07 02:37:00;;;;;;;6.05;3.00;;;;;;;10.62;67.84;101094.06;5108841;28;20031;-80
2022/05/07 02:39:26;;;;;;;5.75;3.20;;;;;;;10.66;67.37;101089.66;5089970;28;20143;-80
2022/05/07 02:44:37;;;;;;;5.53;3.25;;;;;;;10.75;67.43;101083.38;5091224;28;20126;-81
2022/05/07 02:47:06;;;;;;;7.25;3.00;;;;;;;10.79;67.01;101083.66;5073371;28;20039;-81
2022/05/07 02:49:32;;;;;;;7.57;3.35;;;;;;;10.85;66.66;101080.66;5090951;28;20032;-81
2022/05/07 02:51:58;;;;;;;4.25;2.70;;;;;;;10.93;66.38;101084.75;5083739;28;20501;-81
2022/05/07 02:54:24;;;;;;;5.90;3.30;;;;;;;11.05;66.70;101079.03;5109520;28;20620;-80
2022/05/07 02:56:51;;;;;;;6.03;3.10;;;;;;;11.20;65.74;101086.44;5103401;28;20147;-80
2022/05/07 02:59:17;;;;;;;3.92;2.40;;;;;;;11.27;65.28;101103.47;5109300;28;20115;-80
2022/05/07 03:01:43;;;;;;;6.25;3.53;;;;;;;11.28;65.49;101092.22;5086465;28;20043;-80
2022/05/07 03:04:09;;;;;;;4.15;2.92;;;;;;;11.32;65.58;101092.50;5104373;28;20405;-80
2022/05/07 03:06:36;;;;;;;7.65;3.20;;;;;;;11.45;64.99;101086.44;5113189;28;20039;-80
2022/05/07 03:09:03;;;;;;;5.72;3.15;;;;;;;11.60;65.00;101093.84;5112684;27;20126;-80
2022/05/07 03:11:28;;;;;;;3.50;2.83;;;;;;;11.78;64.14;101091.38;5112668;28;20121;-80
2022/05/07 03:13:54;;;;;;;4.72;2.80;;;;;;;11.95;63.18;101091.06;5110902;28;20063;-81
2022/05/07 03:16:20;;;;;;;5.07;2.80;;;;;;;12.05;62.50;101084.72;5111826;28;20081;-81
2022/05/07 03:18:46;;;;;;;3.00;2.60;;;;;;;12.18;62.93;101083.28;5111832;28;20027;-81
2022/05/07 03:21:14;;;;;;;5.38;2.80;;;;;;;12.28;61.47;101089.56;5108813;28;20521;-80
2022/05/07 03:23:42;;;;;;;4.10;3.03;;;;;;;12.43;61.85;101080.41;5102848;28;20138;-80
2022/05/07 03:26:08;;;;;;;3.40;2.45;;;;;;;12.48;61.18;101079.56;5112035;28;20028;-80
2022/05/07 03:28:34;;;;;;;3.95;2.63;;;;;;;12.59;60.20;101086.66;5091613;28;20494;-80
2022/05/07 03:31:00;;;;;;;2.95;2.65;;;;;;;12.74;60.04;101081.09;5108306;28;20058;-80
2022/05/07 03:33:26;;;;;;;6.68;2.90;;;;;;;12.79;59.44;101086.56;5109851;27;20518;-81
2022/05/07 03:35:51;;;;;;;3.65;2.47;;;;;;;12.98;59.39;101087.53;5095004;28;20044;-80
2022/05/07 03:38:18;;;;;;;5.13;2.70;;;;;;;13.18;58.97;101080.25;5107259;28;20445;-80
2022/05/07 03:40:53;;;;;;;3.17;2.70;;;;;;;13.18;58.71;101080.25;5112506;28;20035;-81
2022/05/07 03:43:23;;;;;;;3.83;2.90;;;;;;;13.28;58.41;101075.47;5086569;28;20131;-81
2022/05/07 03:45:49;;;;;;;4.65;2.60;;;;;;;13.39;57.36;101076.22;5108153;28;20123;-80
2022/05/07 03:48:14;;;;;;;9.52;3.35;;;;;;;13.38;57.93;101071.00;5112214;28;20031;-80
2022/05/07 03:50:45;;;;;;;9.23;2.75;;;;;;;13.28;58.30;101077.41;5092752;28;20032;-81
2022/05/07 03:56:00;;;;;;;5.00;3.15;;;;;;;13.44;58.01;101078.09;5100812;28;20059;-81
2022/05/07 03:58:32;;;;;;;5.72;2.80;;;;;;;13.60;56.99;101084.31;5093560;28;20058;-80
2022/05/07 04:00:59;;;;;;;4.93;2.97;;;;;;;13.69;56.85;101080.59;5093021;28;20051;-81
2022/05/07 04:03:25;;;;;;;4.95;3.00;;;;;;;13.84;56.18;101082.38;5084379;28;20035;-81
2022/05/07 04:05:54;;;;;;;4.75;2.70;;;;;;;13.97;56.10;101087.22;5096843;28;20043;-81
2022/05/07 04:08:21;;;;;;;2.75;2.47;;;;;;;14.12;56.04;101084.28;5090135;28;20039;-81
2022/05/07 04:10:48;;;;;;;4.22;2.75;;;;;;;14.27;55.09;101090.75;5075862;28;20040;-81
2022/05/07 04:13:17;;;;;;;4.80;2.95;;;;;;;14.27;55.19;101090.75;5095669;28;20038;-81
2022/05/07 04:15:44;;;;;;;4.13;2.80;;;;;;;14.29;55.07;101100.38;5111372;28;20089;-81
2022/05/07 04:18:10;;;;;;;7.53;2.80;;;;;;;14.44;54.68;101085.59;5102145;28;20040;-81
2022/05/07 04:20:39;;;;;;;7.50;2.53;;;;;;;14.62;53.52;101093.06;5092914;28;20583;-81
2022/05/07 04:23:08;;;;;;;4.53;2.80;;;;;;;14.82;54.01;101091.97;5095247;28;20097;-81
2022/05/07 04:25:34;;;;;;;3.08;2.78;;;;;;;15.05;52.85;101090.22;5113259;28;20087;-80
2022/05/07 04:28:00;;;;;;;5.07;2.92;;;;;;;15.26;52.50;101091.53;5112822;28;20088;-78
2022/05/07 04:30:26;;;;;;;6.88;2.75;;;;;;;15.38;51.67;101086.38;5108423;28;20096;-79
2022/05/07 04:32:53;;;;;;;5.10;2.58;;;;;;;15.51;51.59;101086.72;5093793;28;20040;-79
2022/05/07 04:35:19;;;;;;;3.00;2.53;;;;;;;15.61;50.99;101081.03;5109584;28;20032;-80
2022/05/07 04:37:45;;;;;;;3.15;2.80;;;;;;;15.61;51.31;101075.50;5108542;27;20036;-78
2022/05/07 04:40:12;;;;;;;5.28;2.53;;;;;;;15.78;50.58;101075.72;5109895;28;20050;-79
2022/05/07 04:42:39;;;;;;;2.85;2.25;;;;;;;15.98;49.78;101075.34;5107566;28;20032;-79
2022/05/07 04:45:05;;;;;;;3.13;2.65;;;;;;;16.09;50.03;101073.19;5090762;28;20036;-79
2022/05/07 04:47:45;;;;;;;3.10;2.45;;;;;;;16.34;49.27;101066.31;5108161;28;20097;-79
2022/05/07 04:50:20;;;;;;;4.35;2.58;;;;;;;16.53;48.13;101067.00;5113235;27;20058;-80
2022/05/07 04:52:50;;;;;;;6.35;2.60;;;;;;;16.55;48.24;101067.53;5090152;28;20551;-80
2022/05/07 04:55:16;;;;;;;3.90;2.50;;;;;;;16.82;47.57;101065.81;5092960;28;20035;-80
2022/05/07 04:57:45;;;;;;;4.22;2.03;;;;;;;16.99;47.17;101065.97;5089861;28;20039;-80
2022/05/07 05:00:12;;;;;;;3.30;2.60;;;;;;;17.07;46.98;101062.47;5093350;28;20104;-80
2022/05/07 05:02:51;;;;;;;4.75;2.70;;;;;;;17.40;45.96;101063.03;5107491;28;20074;-79
2022/05/07 05:05:19;;;;;;;6.47;2.38;;;;;;;17.60;45.58;101053.34;5104360;28;20414;-80
2022/05/07 05:07:54;;;;;;;5.13;2.42;;;;;;;17.65;45.20;101058.75;5106766;28;20040;-80
2022/05/07 05:10:20;;;;;;;5.38;2.72;;;;;;;17.62;45.29;101051.06;5110218;28;20043;-80
2022/05/07 05:12:47;;;;;;;3.30;2.65;;;;;;;17.73;45.26;101051.66;5104116;28;20046;-79
2022/05/07 05:15:14;;;;;;;4.57;2.90;;;;;;;17.75;44.90;101044.66;5105496;28;20401;-79
2022/05/07 05:18:00;;;;;;;5.72;3.03;;;;;;;17.46;44.69;101042.31;5108483;28;20513;-79
2022/05/07 05:20:26;;;;;;;4.90;2.75;;;;;;;17.41;44.37;101042.47;5105287;28;20513;-79
2022/05/07 05:22:58;;;;;;;5.93;2.97;;;;;;;17.44;44.90;101041.00;5090977;28;20089;-80
2022/05/07 05:25:37;;;;;;;6.45;3.28;;;;;;;17.41;44.92;101038.88;5088042;28;20044;-79
2022/05/07 05:28:04;;;;;;;4.75;2.65;;;;;;;17.41;44.81;101039.69;5104371;28;20811;-79
2022/05/07 05:30:30;;;;;;;3.15;2.67;;;;;;;17.51;44.10;101035.00;5109726;28;20122;-79
2022/05/07 05:33:03;;;;;;;3.92;2.75;;;;;;;17.60;44.50;101027.56;5085209;28;20096;-79
2022/05/07 05:35:30;;;;;;;4.72;2.75;;;;;;;17.92;43.75;101027.25;5106884;28;20035;-79
2022/05/07 05:37:58;;;;;;;5.30;2.72;;;;;;;18.10;43.13;101030.91;5103451;28;20035;-78
2022/05/07 05:40:24;;;;;;;7.07;2.88;;;;;;;18.13;43.16;101034.97;5110796;28;20039;-79
2022/05/07 05:42:52;;;;;;;3.35;2.65;;;;;;;18.28;42.84;101029.78;5092910;28;20040;-79
2022/05/07 05:45:19;;;;;;;3.28;2.60;;;;;;;18.53;42.40;101019.84;5108768;28;20521;-79
2022/05/07 05:47:46;;;;;;;6.60;2.88;;;;;;;18.49;42.41;101029.19;5095656;28;20097;-80
2022/05/07 05:50:12;;;;;;;5.28;3.25;;;;;;;18.44;42.04;101026.56;5109205;28;20031;-80
2022/05/07 05:52:43;;;;;;;4.07;2.92;;;;;;;18.14;42.77;101015.22;5093575;28;20054;-81
2022/05/07 05:55:10;;;;;;;5.35;2.92;;;;;;;18.06;42.80;101018.81;5092708;28;20036;-81
2022/05/07 05:57:36;;;;;;;5.47;3.28;;;;;;;18.00;43.05;101023.66;5090530;28;20532;-81
2022/05/07 06:00:06;;;;;;;7.93;2.53;;;;;;;18.14;42.84;101011.63;5102570;28;20114;-80
2022/05/07 06:02:39;;;;;;;4.00;2.67;;;;;;;18.61;42.41;101004.34;5109743;28;20100;-80
2022/05/07 06:05:06;;;;;;;4.88;2.58;;;;;;;18.87;41.15;101002.41;5108590;28;20130;-80
2022/05/07 06:07:37;;;;;;;4.13;2.55;;;;;;;18.72;41.89;101002.06;5108930;28;20047;-80
2022/05/07 06:10:04;;;;;;;3.35;3.05;;;;;;;18.67;41.63;101005.84;5100630;28;20042;-80
2022/05/07 06:12:31;;;;;;;9.45;3.13;;;;;;;18.65;42.29;101008.94;5092404;28;20035;-80
2022/05/07 06:14:57;;;;;;;8.20;3.47;;;;;;;18.83;42.13;101015.31;5106570;28;20035;-80
2022/05/07 06:17:27;;;;;;;3.33;3.03;;;;;;;19.04;41.33;101011.88;5092101;28;20390;-81
2022/05/07 06:19:53;;;;;;;5.47;3.78;;;;;;;19.18;40.89;101009.72;5100480;28;20039;-80
2022/05/07 06:22:19;;;;;;;5.93;3.05;;;;;;;19.36;40.90;101000.19;5109319;28;20053;-80
2022/05/07 06:27:44;;;;;;;4.85;2.95;;;;;;;19.91;39.83;100999.34;5103723;28;20155;-79
2022/05/07 06:30:16;;;;;;;4.30;2.60;;;;;;;20.07;39.44;101005.19;5104339;28;20528;-81
2022/05/07 06:32:50;;;;;;;8.30;3.17;;;;;;;19.92;39.59;101000.97;5102223;28;20077;-78
2022/05/07 06:35:16;;;;;;;6.63;2.42;;;;;;;19.93;39.08;100994.25;5106595;28;20063;-79
2022/05/07 06:37:53;;;;;;;5.75;2.60;;;;;;;19.71;39.67;100991.75;5109800;28;20035;-79
2022/05/07 06:40:21;;;;;;;3.40;2.60;;;;;;;19.53;39.40;100988.19;5109403;28;20505;-79
2022/05/07 06:42:49;;;;;;;3.60;2.60;;;;;;;19.61;39.52;100992.09;5096633;28;20498;-79
2022/05/07 06:45:25;;;;;;;4.40;2.30;;;;;;;20.16;38.66;100987.25;5094003;28;20032;-79
2022/05/07 06:47:51;;;;;;;5.55;2.75;;;;;;;20.25;38.33;100994.75;5094254;28;20040;-79
2022/05/07 06:50:17;;;;;;;3.97;3.05;;;;;;;19.94;38.78;100981.97;5078830;28;21127;-78
2022/05/07 06:52:45;;;;;;;4.28;2.40;;;;;;;19.80;38.91;100981.41;5099893;27;20032;-78
2022/05/07 06:55:14;;;;;;;;;;;;;;;20.06;38.13;100975.69;5103227;28;20559;-78
2022/05/07 06:57:40;;;;;;;4.07;1.67;;;;;;;20.45;38.22;100985.59;5110064;28;19988;-78
2022/05/07 07:00:06;;;;;;;3.05;1.67;;;;;;;20.59;36.61;100976.97;5113388;28;20078;-78
2022/05/07 07:02:31;;;;;;;3.28;1.45;;;;;;;20.56;37.28;100969.31;5098919;28;20502;-79
2022/05/07 07:05:00;;;;;;;6.93;1.85;;;;;;;20.60;36.65;100973.03;5104093;27;20497;-78
2022/05/07 07:07:26;;;;;;;3.33;2.50;;;;;;;20.52;36.35;100973.94;5110132;28;20039;-78
2022/05/07 07:09:52;;;;;;;4.40;2.07;;;;;;;20.15;37.58;100962.53;5107705;28;20044;-77
2022/05/07 07:12:20;;;;;;;2.78;2.20;;;;;;;19.96;37.56;100971.31;5096486;28;20040;-79
2022/05/07 07:14:49;;;;;;;6.65;2.17;;;;;;;19.73;38.02;100964.38;5109275;28;20417;-78
2022/05/07 07:17:16;;;;;;;4.07;2.03;;;;;;;19.70;37.90;100967.84;5107492;28;20444;-79
2022/05/07 07:19:42;;;;;;;5.13;2.10;;;;;;;19.71;37.41;100964.72;5108932;28;20036;-78
2022/05/07 07:22:08;;;;;;;4.82;1.88;;;;;;;19.70;37.24;100957.53;5092701;28;20040;-79
2022/05/07 07:24:34;;;;;;;5.10;1.70;;;;;;;19.76;37.11;100955.34;5093442;28;20036;-79
2022/05/07 07:26:59;;;;;;;2.50;2.08;;;;;;;19.84;37.42;100948.94;5092786;28;20482;-79
2022/05/07 07:29:25;;;;;;;3.25;1.88;;;;;;;19.82;36.93;100960.41;5097906;28;20126;-79
2022/05/07 07:31:51;;;;;;;4.60;2.30;;;;;;;19.54;37.21;100960.06;5099135;28;20634;-79
2022/05/07 07:34:17;;;;;;;3.05;2.13;;;;;;;19.65;37.45;100949.38;5095480;28;20127;-79
2022/05/07 07:36:44;;;;;;;5.15;2.50;;;;;;;19.73;36.81;100945.72;5094234;28;20481;-79
2022/05/07 07:39:13;;;;;;;3.60;2.53;;;;;;;19.84;36.31;100941.41;5059204;28;20040;-79
2022/05/07 07:41:38;;;;;;;7.28;2.63;;;;;;;19.91;36.56;100940.88;5107910;28;20042;-79
2022/05/07 07:44:04;;;;;;;5.30;2.60;;;;;;;20.37;35.97;100936.28;5097706;28;20032;-79
2022/05/07 07:49:14;;;;;;;6.60;2.63;;;;;;;20.95;34.34;100926.91;5107774;28;20043;-79
2022/05/07 07:51:39;;;;;;;5.18;2.20;;;;;;;21.06;34.65;100924.53;5111333;28;20820;-79
2022/05/07 07:54:05;;;;;;;7.45;2.42;;;;;;;21.26;33.97;100920.88;5100905;28;20119;-79
2022/05/07 07:56:31;;;;;;;5.13;2.70;;;;;;;21.34;34.59;100919.94;5095901;28;20032;-78
2022/05/07 07:58:57;;;;;;;4.47;2.72;;;;;;;21.47;33.98;100917.16;5091979;28;20528;-79
2022/05/07 08:01:22;;;;;;;4.37;2.97;;;;;;;21.57;34.21;100911.13;5091606;28;20051;-78
2022/05/07 08:03:48;;;;;;;8.30;3.23;;;;;;;21.60;34.66;100904.84;5096826;28;20093;-78
2022/05/07 08:06:13;;;;;;;6.40;3.13;;;;;;;21.87;34.25;100897.75;5094282;28;20039;-78
2022/05/07 08:11:42;;;;;;;7.43;2.88;;;;;;;22.06;33.60;100894.38;5094531;28;20537;-78
2022/05/07 08:14:08;;;;;;;4.25;2.88;;;;;;;22.00;33.45;100895.72;5093600;28;20135;-78
2022/05/07 08:16:35;;;;;;;4.47;3.28;;;;;;;21.63;33.81;100892.97;5092257;28;20039;-78
2022/05/07 08:19:06;;;;;;;5.15;2.75;;;;;;;21.18;34.36;100888.28;5110372;28;20043;-78
2022/05/07 08:21:32;;;;;;;3.92;2.78;;;;;;;21.26;34.61;100879.00;5112869;28;20135;-79
2022/05/07 08:23:58;;;;;;;7.38;3.00;;;;;;;21.46;34.22;100876.44;5107930;28;20039;-79
2022/05/07 08:26:24;;;;;;;9.13;2.87;;;;;;;21.57;34.09;100874.84;5091493;28;20052;-79
2022/05/07 08:28:51;;;;;;;4.47;3.03;;;;;;;21.39;34.04;100865.06;5076001;28;20036;-79
2022/05/07 08:31:18;;;;;;;9.05;2.90;;;;;;;21.28;33.68;100870.28;5103127;27;20036;-78
2022/05/07 08:33:43;;;;;;;5.07;2.47;;;;;;;21.13;33.88;100868.94;5103986;27;20054;-78
2022/05/07 08:36:10;;;;;;;3.08;2.42;;;;;;;20.88;33.99;100862.53;5099790;28;20032;-78
2022/05/07 08:38:37;;;;;;;6.35;2.75;;;;;;;20.80;34.08;100860.63;5100634;27;20040;-78
2022/05/07 08:41:03;;;;;;;6.60;2.80;;;;;;;20.71;34.15;100862.72;5092959;28;20332;-78
2022/05/07 08:43:36;;;;;;;3.33;2.30;;;;;;;20.78;34.09;100858.19;5104396;28;20047;-78
2022/05/07 08:46:14;;;;;;;5.68;2.55;;;;;;;20.63;34.25;100853.25;5096559;28;20165;-77
2022/05/07 08:48:46;;;;;;;5.40;3.45;;;;;;;20.46;34.71;100854.25;5086026;28;20545;-78
2022/05/07 08:51:16;;;;;;;6.53;2.72;;;;;;;20.29;34.88;100851.59;5100750;28;20040;-78
2022/05/07 08:53:43;;;;;;;7.47;2.50;;;;;;;20.03;35.16;100846.25;5102007;28;20066;-78
2022/05/07 08:56:10;;;;;;;6.75;2.78;;;;;;;19.82;35.61;100839.84;5093884;28;20063;-78
2022/05/07 08:58:36;;;;;;;4.47;2.80;;;;;;;19.81;35.97;100839.03;5106328;28;20040;-78
2022/05/07 09:01:02;;;;;;;6.35;2.88;;;;;;;19.84;36.23;100834.75;5107422;28;20039;-77
2022/05/07 09:03:39;;;;;;;1.00;0.80;;;;;;;19.79;36.21;100818.25;5077404;28;20036;-78
2022/05/07 09:06:16;;;;;;;4.53;2.58;;;;;;;19.63;36.47;100817.22;5094597;28;20044;-79
2022/05/07 09:08:44;;;;;;;4.07;2.33;;;;;;;19.55;37.24;100822.50;5098565;28;20040;-80
2022/05/07 09:11:10;;;;;;;5.60;2.40;;;;;;;19.48;37.11;100818.59;5096005;28;20046;-79
2022/05/07 09:13:35;;;;;;;6.43;3.08;;;;;;;19.65;37.20;100823.28;5092533;28;20134;-81
2022/05/07 09:16:02;;;;;;;6.07;2.80;;;;;;;20.10;36.95;100815.84;5095650;28;20504;-80
2022/05/07 09:18:31;;;;;;;5.32;3.13;;;;;;;20.49;35.97;100822.09;5098030;28;20035;-81
2022/05/07 09:21:15;;;;;;;4.85;2.55;;;;;;;20.71;35.69;100807.75;5101274;28;20122;-81
2022/05/07 09:23:46;;;;;;;2.60;2.35;;;;;;;20.75;36.00;100811.47;5105104;28;20122;-88
2022/05/07 09:26:32;;;;;;;5.55;2.28;;;;;;;20.82;35.74;100796.94;5092318;28;20039;-85
2022/05/07 09:28:59;;;;;;;7.15;2.65;;;;;;;20.53;35.73;100800.72;5093255;28;20092;-84
2022/05/07 09:31:26;;;;;;;4.72;2.30;;;;;;;20.39;35.83;100794.63;5110318;28;20035;-90
2022/05/07 09:35:47;;;;;;;3.80;2.88;;;;;;;20.14;36.47;100786.19;5094685;28;20036;-87
2022/05/07 09:36:43;;;;;;;5.68;2.90;;;;;;;19.96;36.49;100792.22;5111739;27;20047;-86
2022/05/07 09:39:12;;;;;;;4.60;2.97;;;;;;;19.79;36.97;100793.19;5095364;28;20038;-83
2022/05/07 09:41:38;;;;;;;3.85;2.88;;;;;;;19.69;37.31;100788.84;5116026;27;20047;-80
2022/05/07 09:44:06;;;;;;;7.72;2.47;;;;;;;19.68;37.66;100790.00;5080224;28;20047;-85
2022/05/07 09:46:32;;;;;;;4.13;2.58;;;;;;;19.70;37.44;100784.09;5080035;28;20473;-80
2022/05/07 09:49:00;;;;;;;3.42;2.60;;;;;;;19.64;37.10;100785.44;5106652;28;20043;-83
2022/05/07 09:51:27;;;;;;;3.38;2.40;;;;;;;19.64;37.38;100769.56;5091777;28;20120;-83
2022/05/07 09:59:21;;;;;;;5.15;2.45;;;;;;;19.71;36.82;100760.66;5095566;28;20040;-82
2022/05/07 10:02:08;;;;;;;3.63;2.30;;;;;;;19.77;36.58;100767.63;5104620;28;20051;-82
2022/05/07 10:04:49;;;;;;;4.40;2.20;;;;;;;19.78;36.25;100758.13;5097193;28;20031;-79
2022/05/07 10:07:43;;;;;;;5.78;2.20;;;;;;;19.78;36.31;100752.56;5096353;28;20058;-80
2022/05/07 10:10:17;;;;;;;3.58;2.17;;;;;;;19.73;36.56;100755.56;5098445;28;20051;-80
2022/05/07 10:12:46;;;;;;;4.13;2.55;;;;;;;19.75;36.36;100751.28;5092882;28;20490;-86
2022/05/07 10:15:15;;;;;;;5.18;2.22;;;;;;;19.80;36.29;100751.09;5093492;28;20044;-82
2022/05/07 10:17:45;;;;;;;4.25;2.33;;;;;;;19.85;36.03;100750.88;5096898;28;20703;-84
2022/05/07 10:20:13;;;;;;;4.13;2.50;;;;;;;19.90;36.15;100749.84;5098063;28;20044;-80
2022/05/07 10:22:39;;;;;;;2.85;2.22;;;;;;;;;;5098091;28;20036;-80
2022/05/07 10:25:12;;;;;;;9.15;2.85;;;;;;;20.12;35.69;100740.28;5094980;28;20039;-88
2022/05/07 10:27:42;;;;;;;4.45;2.13;;;;;;;20.14;35.54;100736.03;5102447;28;20169;-84
2022/05/07 10:30:16;;;;;;;5.32;2.80;;;;;;;20.09;35.36;100739.00;5116306;28;20035;-84
2022/05/07 10:32:46;;;;;;;3.40;2.55;;;;;;;20.03;36.19;100731.22;5090986;28;20036;-78
2022/05/07 10:35:12;;;;;;;4.35;1.95;;;;;;;19.99;36.02;100733.06;5122038;28;20039;-80
2022/05/07 10:37:43;;;;;;;5.68;2.40;;;;;;;19.93;35.99;100724.09;5104349;27;20043;-79
2022/05/07 10:40:10;;;;;;;6.75;2.25;;;;;;;19.83;36.16;100730.09;5090890;28;20051;-78
2022/05/07 10:42:39;;;;;;;5.47;2.50;;;;;;;19.60;36.16;100726.00;5106465;28;20048;-78
2022/05/07 10:45:29;;;;;;;4.72;2.55;;;;;;;19.41;36.46;100732.03;5099664;28;20031;-76
2022/05/07 10:47:55;;;;;;;7.60;2.30;;;;;;;19.29;36.80;100727.22;5096410;28;20032;-79
2022/05/07 10:50:22;;;;;;;3.13;2.40;;;;;;;19.17;37.99;100718.78;5102861;28;20032;-83
2022/05/07 10:52:55;;;;;;;2.85;2.40;;;;;;;19.14;38.28;100722.25;5100183;28;20488;-83
2022/05/07 10:55:24;;;;;;;6.43;2.85;;;;;;;19.09;37.85;100725.19;5103081;28;20036;-78
2022/05/07 10:57:51;;;;;;;3.63;2.13;;;;;;;18.98;37.84;100713.66;5078301;28;20040;-79
2022/05/07 11:00:21;;;;;;;2.28;2.00;;;;;;;18.96;38.14;100710.41;5094900;28;20063;-78
2022/05/07 11:02:51;;;;;;;6.25;2.83;;;;;;;19.01;38.14;100712.16;5100766;28;20138;-90
2022/05/07 11:05:17;;;;;;;4.35;1.92;;;;;;;18.96;38.49;100711.22;5082787;28;20077;-83
2022/05/07 11:07:43;;;;;;;5.70;2.15;;;;;;;18.87;38.52;100713.22;5090652;28;20139;-87
2022/05/07 11:10:10;;;;;;;4.07;2.60;;;;;;;18.76;38.65;100708.38;5105171;28;20031;-84
2022/05/07 11:12:36;;;;;;;4.30;2.72;;;;;;;18.65;39.92;100705.16;5090620;28;20131;-82
2022/05/07 11:15:03;;;;;;;3.25;2.25;;;;;;;18.64;39.69;100706.31;5089206;28;20040;-83
2022/05/07 11:17:36;;;;;;;3.78;2.33;;;;;;;18.58;39.95;100704.84;5114707;28;20040;-81
2022/05/07 11:20:05;;;;;;;3.47;2.60;;;;;;;18.62;39.86;100689.13;5101904;28;20042;-87
2022/05/07 11:22:31;;;;;;;4.85;2.78;;;;;;;18.68;40.07;100688.63;5106752;28;20083;-82
2022/05/07 11:25:00;;;;;;;5.03;2.55;;;;;;;18.70;39.91;100696.63;5099864;27;20157;-79
2022/05/07 11:27:32;;;;;;;2.30;2.10;;;;;;;18.70;40.01;100685.50;5100452;28;20093;-77
2022/05/07 11:30:03;;;;;;;2.92;2.53;;;;;;;18.69;39.74;100681.09;5103870;27;20040;-83
2022/05/07 11:32:37;;;;;;;3.80;2.35;;;;;;;18.68;40.12;100682.25;5104144;27;20031;-83
2022/05/07 11:35:03;;;;;;;4.35;2.40;;;;;;;18.77;40.00;100674.69;5102405;28;20028;-87
2022/05/07 11:37:37;;;;;;;6.63;2.20;;;;;;;18.84;39.41;100686.09;5104771;27;20092;-87
2022/05/07 11:40:03;;;;;;;6.25;2.33;;;;;;;18.92;39.54;100678.88;5106031;27;20032;-81
2022/05/07 11:42:45;;;;;;;6.22;3.70;;;;;;;19.03;39.68;100673.69;5104512;27;20513;-80
2022/05/07 11:45:33;;;;;;;2.78;2.38;;;;;;;19.13;39.26;100665.78;5098875;28;20090;-82
2022/05/07 11:48:07;;;;;;;3.92;2.45;;;;;;;19.19;39.25;100658.03;5102807;27;20540;-78
2022/05/07 11:50:41;;;;;;;4.65;2.72;;;;;;;19.23;38.89;100659.00;5106609;27;20050;-80
2022/05/07 11:53:15;;;;;;;3.67;2.70;;;;;;;19.27;38.72;100657.19;5110656;27;20036;-81
2022/05/07 11:55:42;;;;;;;2.85;2.40;;;;;;;19.29;38.87;100663.22;5111672;27;20063;-81
2022/05/07 11:58:18;;;;;;;5.85;2.35;;;;;;;19.23;38.76;100656.22;5108276;27;20587;-86
2022/05/07 12:00:53;;;;;;;5.95;2.97;;;;;;;19.19;39.12;100652.47;5089477;28;20096;-80